createdAt,value
2023-01-30T00:01:49.410Z,-1.91
2023-01-30T00:04:38.899Z,-1.87
2023-01-30T00:07:28.146Z,-1.86
2023-01-30T00:10:20.906Z,-1.85
2023-01-30T00:13:11.016Z,-1.85
2023-01-30T00:15:59.943Z,-1.84
2023-01-30T00:18:50.676Z,-1.84
2023-01-30T00:21:39.736Z,-1.83
2023-01-30T00:24:34.101Z,-1.83
2023-01-30T00:27:27.606Z,-1.81
2023-01-30T00:30:18.279Z,-1.79
2023-01-30T00:33:07.076Z,-1.79
2023-01-30T00:35:56.732Z,-1.78
2023-01-30T00:38:45.482Z,-1.76
2023-01-30T00:41:52.958Z,-1.74
2023-01-30T00:45:00.846Z,-1.78
2023-01-30T00:47:51.443Z,-1.78
2023-01-30T00:50:43.768Z,-1.76
2023-01-30T00:53:35.464Z,-1.74
2023-01-30T00:56:24.347Z,-1.69
2023-01-30T00:59:13.078Z,-1.68
2023-01-30T01:02:01.818Z,-1.66
2023-01-30T01:04:50.630Z,-1.64
2023-01-30T01:07:40.042Z,-1.65
2023-01-30T01:10:31.913Z,-1.65
2023-01-30T01:13:20.684Z,-1.66
2023-01-30T01:16:11.229Z,-1.70
2023-01-30T01:19:00.676Z,-1.73
2023-01-30T01:21:49.628Z,-1.76
2023-01-30T01:24:38.499Z,-1.75
2023-01-30T01:27:27.559Z,-1.75
2023-01-30T01:30:16.855Z,-1.74
2023-01-30T01:33:06.468Z,-1.75
2023-01-30T01:35:56.816Z,-1.75
2023-01-30T01:38:45.872Z,-1.74
2023-01-30T01:41:36.373Z,-1.71
2023-01-30T01:44:25.191Z,-1.69
2023-01-30T01:47:14.589Z,-1.68
2023-01-30T01:50:03.551Z,-1.68
2023-01-30T01:52:54.032Z,-1.68
2023-01-30T01:55:44.067Z,-1.68
2023-01-30T01:58:36.162Z,-1.70
2023-01-30T02:01:25.009Z,-1.68
2023-01-30T02:04:34.905Z,-1.67
2023-01-30T02:07:23.650Z,-1.68
2023-01-30T02:10:23.755Z,-1.67
2023-01-30T02:13:12.979Z,-1.66
2023-01-30T02:16:02.894Z,-1.65
2023-01-30T02:18:52.104Z,-1.69
2023-01-30T02:21:43.882Z,-1.71
2023-01-30T02:24:35.325Z,-1.72
2023-01-30T02:27:27.591Z,-1.70
2023-01-30T02:30:22.257Z,-1.67
2023-01-30T02:33:22.416Z,-1.68
2023-01-30T02:36:38.630Z,-1.71
2023-01-30T02:39:49.431Z,-1.72
2023-01-30T02:42:47.587Z,-1.72
2023-01-30T02:45:50.905Z,-1.73
2023-01-30T02:48:56.977Z,-1.74
2023-01-30T02:51:48.178Z,-1.72
2023-01-30T02:54:37.230Z,-1.79
2023-01-30T02:57:27.256Z,-1.92
2023-01-30T03:00:34.094Z,-1.94
2023-01-30T03:03:35.113Z,-1.95
2023-01-30T03:07:12.405Z,-1.98
2023-01-30T03:10:02.863Z,-2.00
2023-01-30T03:12:58.481Z,-2.02
2023-01-30T03:15:53.654Z,-2.03
2023-01-30T03:18:43.007Z,-2.04
2023-01-30T03:21:35.139Z,-2.03
2023-01-30T03:24:24.031Z,-2.06
2023-01-30T03:27:12.889Z,-2.13
2023-01-30T03:30:05.741Z,-2.15
2023-01-30T03:32:54.488Z,-2.14
2023-01-30T03:36:15.678Z,-2.14
2023-01-30T03:39:04.323Z,-2.16
2023-01-30T03:41:53.727Z,-2.18
2023-01-30T03:44:43.262Z,-2.21
2023-01-30T03:47:33.094Z,-2.21
2023-01-30T03:50:22.485Z,-2.22
2023-01-30T03:53:15.437Z,-2.20
2023-01-30T03:56:04.420Z,-2.19
2023-01-30T03:58:53.922Z,-2.18
2023-01-30T04:01:47.030Z,-2.18
2023-01-30T04:04:36.353Z,-2.19
2023-01-30T04:07:28.912Z,-2.19
2023-01-30T04:10:19.996Z,-2.17
2023-01-30T04:13:08.882Z,-2.17
2023-01-30T04:16:22.506Z,-2.18
2023-01-30T04:19:35.554Z,-2.19
2023-01-30T04:22:24.381Z,-2.16
2023-01-30T04:25:15.596Z,-2.17
2023-01-30T04:28:04.922Z,-2.19
2023-01-30T04:30:57.093Z,-2.21
2023-01-30T04:34:18.314Z,-2.21
2023-01-30T04:37:07.762Z,-2.23
2023-01-30T04:39:56.765Z,-2.27
2023-01-30T04:42:48.446Z,-2.27
2023-01-30T04:45:55.957Z,-2.27
2023-01-30T04:48:44.755Z,-2.27
2023-01-30T04:51:34.003Z,-2.26
2023-01-30T04:54:22.974Z,-2.28
2023-01-30T04:57:11.751Z,-2.27
2023-01-30T05:00:00.485Z,-2.27
2023-01-30T05:02:50.653Z,-2.29
2023-01-30T05:05:39.444Z,-2.29
2023-01-30T05:08:30.871Z,-2.29
2023-01-30T05:11:20.854Z,-2.30
2023-01-30T05:14:10.132Z,-2.29
2023-01-30T05:16:59.418Z,-2.28
2023-01-30T05:19:48.586Z,-2.29
2023-01-30T05:22:38.267Z,-2.31
2023-01-30T05:25:26.885Z,-2.32
2023-01-30T05:28:15.638Z,-2.36
2023-01-30T05:31:06.608Z,-2.36
2023-01-30T05:33:55.551Z,-2.35
2023-01-30T05:36:44.425Z,-2.34
2023-01-30T05:39:33.443Z,-2.30
2023-01-30T05:42:22.168Z,-2.31
2023-01-30T05:45:11.163Z,-2.30
2023-01-30T05:48:01.562Z,-2.29
2023-01-30T05:50:51.935Z,-2.26
2023-01-30T05:53:41.421Z,-2.24
2023-01-30T05:56:33.488Z,-2.23
2023-01-30T05:59:22.187Z,-2.22
2023-01-30T06:02:11.913Z,-2.20
2023-01-30T06:05:01.083Z,-2.19
2023-01-30T06:07:49.812Z,-2.17
2023-01-30T06:10:38.647Z,-2.15
2023-01-30T06:13:27.344Z,-2.14
2023-01-30T06:16:17.412Z,-2.12
2023-01-30T06:19:06.136Z,-2.12
2023-01-30T06:21:54.870Z,-2.11
2023-01-30T06:24:43.475Z,-2.09
2023-01-30T06:27:32.385Z,-2.06
2023-01-30T06:30:22.898Z,-2.04
2023-01-30T06:33:12.126Z,-2.04
2023-01-30T06:36:00.717Z,-2.02
2023-01-30T06:38:49.425Z,-2.01
2023-01-30T06:41:38.024Z,-1.99
2023-01-30T06:44:26.867Z,-1.96
2023-01-30T06:47:15.852Z,-1.93
2023-01-30T06:50:04.907Z,-1.92
2023-01-30T06:52:56.649Z,-1.90
2023-01-30T06:55:45.797Z,-1.90
2023-01-30T06:58:34.874Z,-1.89
2023-01-30T07:01:24.614Z,-1.87
2023-01-30T07:04:13.483Z,-1.85
2023-01-30T07:07:02.270Z,-1.83
2023-01-30T07:10:06.748Z,-1.80
2023-01-30T07:12:56.898Z,-1.77
2023-01-30T07:15:46.693Z,-1.70
2023-01-30T07:18:35.552Z,-1.65
2023-01-30T07:21:27.589Z,-1.66
2023-01-30T07:24:16.276Z,-1.65
2023-01-30T07:27:05.091Z,-1.65
2023-01-30T07:29:53.822Z,-1.62
2023-01-30T07:32:43.531Z,-1.61
2023-01-30T07:35:34.620Z,-1.62
2023-01-30T07:38:23.841Z,-1.60
2023-01-30T07:41:14.115Z,-1.61
2023-01-30T07:44:02.926Z,-1.58
2023-01-30T07:46:51.861Z,-1.54
2023-01-30T07:49:40.658Z,-1.52
2023-01-30T07:52:30.507Z,-1.49
2023-01-30T07:55:19.499Z,-1.46
2023-01-30T07:58:10.299Z,-1.40
2023-01-30T08:00:59.254Z,-1.40
2023-01-30T08:03:49.256Z,-1.40
2023-01-30T08:06:39.636Z,-1.40
2023-01-30T08:09:28.787Z,-1.39
2023-01-30T08:12:19.021Z,-1.36
2023-01-30T08:15:08.867Z,-1.36
2023-01-30T08:17:58.683Z,-1.35
2023-01-30T08:20:47.662Z,-1.35
2023-01-30T08:23:36.466Z,-1.33
2023-01-30T08:26:25.637Z,-1.28
2023-01-30T08:29:14.443Z,-1.24
2023-01-30T08:32:03.277Z,-1.20
2023-01-30T08:34:52.014Z,-1.15
2023-01-30T08:37:41.299Z,-1.09
2023-01-30T08:40:30.057Z,-1.06
2023-01-30T08:43:18.975Z,-1.01
2023-01-30T08:46:07.759Z,-1.00
2023-01-30T08:48:56.717Z,-1.00
2023-01-30T08:51:45.448Z,-0.99
2023-01-30T08:54:34.889Z,-0.97
2023-01-30T08:57:23.632Z,-0.96
2023-01-30T09:00:12.727Z,-0.95
2023-01-30T09:03:02.074Z,-0.94
2023-01-30T09:05:56.654Z,-0.91
2023-01-30T09:08:45.594Z,-0.89
2023-01-30T09:11:36.229Z,-0.89
2023-01-30T09:14:25.043Z,-0.92
2023-01-30T09:17:13.950Z,-0.97
2023-01-30T09:20:02.677Z,-0.99
2023-01-30T09:22:51.642Z,-0.97
2023-01-30T09:25:41.682Z,-0.92
2023-01-30T09:28:30.536Z,-0.90
2023-01-30T09:31:19.451Z,-0.89
2023-01-30T09:34:08.893Z,-0.89
2023-01-30T09:37:00.311Z,-0.86
2023-01-30T09:39:49.039Z,-0.84
2023-01-30T09:42:47.938Z,-0.82
2023-01-30T09:45:51.666Z,-0.79
2023-01-30T09:48:50.595Z,-0.79
2023-01-30T09:51:43.389Z,-0.81
2023-01-30T09:54:36.995Z,-0.78
2023-01-30T09:57:25.915Z,-0.77
2023-01-30T10:00:25.912Z,-0.74
2023-01-30T12:06:32.066Z,-1.31
2023-01-30T12:09:35.519Z,-1.30
2023-01-30T12:12:34.150Z,-1.27
2023-01-30T12:15:26.986Z,-1.23
2023-01-30T12:18:23.948Z,-1.21
2023-01-30T12:21:26.626Z,-1.18
2023-01-30T12:24:32.520Z,-1.16
2023-01-30T12:27:25.132Z,-1.16
2023-01-30T12:30:17.329Z,-1.17
2023-01-30T12:33:06.786Z,-1.16
2023-01-30T12:36:00.227Z,-1.15
2023-01-30T12:39:27.154Z,-1.16
2023-01-30T12:42:43.675Z,-1.16
2023-01-30T12:46:02.731Z,-1.19
2023-01-30T12:49:11.698Z,-1.20
2023-01-30T12:52:19.165Z,-1.20
2023-01-30T12:55:07.861Z,-1.20
2023-01-30T12:58:01.566Z,-1.21
2023-01-30T13:00:53.259Z,-1.20
2023-01-30T13:04:06.221Z,-1.20
2023-01-30T13:06:59.785Z,-1.19
2023-01-30T13:10:16.273Z,-1.20
2023-01-30T13:13:21.878Z,-1.22
2023-01-30T13:16:23.063Z,-1.22
2023-01-30T13:19:21.152Z,-1.23
2023-01-30T13:22:24.292Z,-1.24
2023-01-30T13:25:31.961Z,-1.25
2023-01-30T13:28:25.889Z,-1.26
2023-01-30T13:31:17.340Z,-1.26
2023-01-30T13:34:07.828Z,-1.27
2023-01-30T13:37:04.236Z,-1.29
2023-01-30T13:39:55.995Z,-1.31
2023-01-30T13:42:58.721Z,-1.31
2023-01-30T13:45:48.318Z,-1.31
2023-01-30T13:48:43.551Z,-1.34
2023-01-30T13:52:02.979Z,-1.36
2023-01-30T13:55:22.037Z,-1.39
2023-01-30T13:58:17.864Z,-1.41
2023-01-30T14:01:06.973Z,-1.43
2023-01-30T14:03:55.716Z,-1.45
2023-01-30T14:06:44.499Z,-1.47
2023-01-30T14:09:40.074Z,-1.48
2023-01-30T14:12:34.447Z,-1.50
2023-01-30T14:15:28.955Z,-1.51
2023-01-30T14:18:28.092Z,-1.53
2023-01-30T14:21:20.397Z,-1.55
2023-01-30T14:24:18.466Z,-1.57
2023-01-30T14:27:23.219Z,-1.58
2023-01-30T14:30:34.874Z,-1.60
2023-01-30T14:33:23.657Z,-1.60
2023-01-30T14:36:15.725Z,-1.62
2023-01-30T14:39:39.845Z,-1.63
2023-01-30T14:42:30.053Z,-1.63
2023-01-30T14:45:19.088Z,-1.65
2023-01-30T14:48:29.820Z,-1.66
2023-01-30T14:51:34.043Z,-1.67
2023-01-30T14:54:33.266Z,-1.68
2023-01-30T14:57:33.071Z,-1.69
2023-01-30T15:00:29.220Z,-1.69
2023-01-30T15:03:18.704Z,-1.71
2023-01-30T15:06:07.968Z,-1.70
2023-01-30T15:08:56.704Z,-1.71
2023-01-30T15:11:47.140Z,-1.72
2023-01-30T15:15:14.628Z,-1.73
2023-01-30T15:18:13.321Z,-1.75
2023-01-30T15:21:24.178Z,-1.76
2023-01-30T15:24:40.348Z,-1.75
2023-01-30T15:27:53.901Z,-1.75
2023-01-30T15:31:05.475Z,-1.76
2023-01-30T15:33:57.479Z,-1.78
2023-01-30T15:36:46.238Z,-1.78
2023-01-30T15:39:35.022Z,-1.79
2023-01-30T15:42:23.628Z,-1.79
2023-01-30T15:45:31.158Z,-1.78
2023-01-30T15:48:42.215Z,-1.79
2023-01-30T15:51:31.964Z,-1.79
2023-01-30T15:54:23.636Z,-1.81
2023-01-30T15:57:13.896Z,-1.81
2023-01-30T16:00:03.610Z,-1.81
2023-01-30T18:06:24.017Z,-2.34
2023-01-30T18:09:17.807Z,-2.33
2023-01-30T18:12:06.826Z,-2.30
2023-01-30T18:14:55.623Z,-2.26
2023-01-30T18:17:47.332Z,-2.22
2023-01-30T18:20:36.185Z,-2.18
2023-01-30T18:23:25.442Z,-2.13
2023-01-30T18:26:14.268Z,-2.08
2023-01-30T18:29:02.989Z,-2.04
2023-01-30T18:31:52.988Z,-2.02
2023-01-30T18:34:41.948Z,-2.02
2023-01-30T18:37:30.870Z,-1.98
2023-01-30T18:40:20.298Z,-1.95
2023-01-30T18:43:09.344Z,-1.94
2023-01-30T18:46:08.952Z,-1.93
2023-01-30T18:48:58.511Z,-1.94
2023-01-30T18:51:47.329Z,-1.94
2023-01-30T18:54:37.562Z,-1.95
2023-01-30T18:57:26.787Z,-1.95
2023-01-30T19:00:17.473Z,-1.95
2023-01-30T19:03:08.087Z,-1.95
2023-01-30T19:05:56.771Z,-1.96
2023-01-30T19:08:45.558Z,-1.96
2023-01-30T19:11:56.786Z,-1.95
2023-01-30T19:14:46.142Z,-1.95
2023-01-30T19:17:35.083Z,-1.97
2023-01-30T19:20:24.981Z,-1.97
2023-01-30T19:23:13.970Z,-1.97
2023-01-30T19:26:03.212Z,-1.96
2023-01-30T19:28:52.361Z,-1.96
2023-01-30T19:31:41.778Z,-1.98
2023-01-30T19:34:30.536Z,-1.99
2023-01-30T19:37:19.900Z,-2.00
2023-01-30T19:40:09.489Z,-2.01
2023-01-30T19:43:09.354Z,-2.03
2023-01-30T19:45:59.813Z,-2.06
2023-01-30T19:48:49.549Z,-2.08
2023-01-30T19:51:38.336Z,-2.12
2023-01-30T19:54:27.455Z,-2.13
2023-01-30T19:57:16.076Z,-2.13
2023-01-30T20:00:05.340Z,-2.14
2023-01-30T20:02:54.332Z,-2.14
2023-01-30T20:05:43.461Z,-2.12
2023-01-30T20:08:34.955Z,-2.11
2023-01-30T20:11:25.917Z,-2.10
2023-01-30T20:14:14.785Z,-2.08
2023-01-30T20:17:04.055Z,-2.07
2023-01-30T20:19:52.730Z,-2.07
2023-01-30T20:22:41.784Z,-2.08
2023-01-30T20:25:30.628Z,-2.11
2023-01-30T20:28:19.773Z,-2.15
2023-01-30T20:31:12.734Z,-2.21
2023-01-30T20:34:03.590Z,-2.29
2023-01-30T20:36:52.444Z,-2.39
2023-01-30T20:39:42.570Z,-2.50
2023-01-30T20:42:31.571Z,-2.61
2023-01-30T20:45:20.360Z,-2.70
2023-01-30T20:48:09.214Z,-2.78
2023-01-30T20:51:05.481Z,-2.86
2023-01-30T20:53:56.141Z,-2.94
2023-01-30T20:56:46.190Z,-3.02
2023-01-30T20:59:35.589Z,-3.09
2023-01-30T21:02:24.317Z,-3.16
2023-01-30T21:05:13.147Z,-3.18
2023-01-30T21:08:06.856Z,-3.21
2023-01-30T21:11:03.117Z,-3.21
2023-01-30T21:13:52.574Z,-3.24
2023-01-30T21:16:41.559Z,-3.27
2023-01-30T21:19:30.924Z,-3.31
2023-01-30T21:22:20.694Z,-3.32
2023-01-30T21:25:09.567Z,-3.32
2023-01-30T21:27:58.206Z,-3.34
2023-01-30T21:30:47.149Z,-3.36
2023-01-30T21:33:36.047Z,-3.37
2023-01-30T21:36:25.534Z,-3.38
2023-01-30T21:39:32.553Z,-3.37
2023-01-30T21:42:40.394Z,-3.34
2023-01-30T21:45:29.268Z,-3.26
2023-01-30T21:48:17.975Z,-3.21
2023-01-30T21:51:11.497Z,-3.18
2023-01-30T21:54:02.023Z,-3.14
2023-01-30T21:56:50.818Z,-3.07
2023-01-30T21:59:39.976Z,-3.02
2023-01-30T22:02:29.175Z,-2.98
2023-01-30T22:05:18.601Z,-2.94
2023-01-30T22:08:07.811Z,-2.91
2023-01-30T22:11:09.632Z,-2.87
2023-01-30T22:13:58.337Z,-2.83
2023-01-30T22:16:47.056Z,-2.82
2023-01-30T22:19:35.992Z,-2.81
2023-01-30T22:22:25.198Z,-2.81
2023-01-30T22:25:16.923Z,-2.80
2023-01-30T22:28:05.748Z,-2.79
2023-01-30T22:31:03.977Z,-2.80
2023-01-30T22:33:54.844Z,-2.80
2023-01-30T22:36:43.833Z,-2.81
2023-01-30T22:39:32.863Z,-2.80
2023-01-30T22:42:21.572Z,-2.82
2023-01-30T22:45:10.842Z,-2.84
2023-01-30T22:47:59.457Z,-2.86
2023-01-30T22:50:48.284Z,-2.90
2023-01-30T22:53:39.331Z,-2.93
2023-01-30T22:56:35.831Z,-2.93
2023-01-30T22:59:24.587Z,-2.95
2023-01-30T23:02:13.668Z,-2.99
2023-01-30T23:05:03.350Z,-3.03
2023-01-30T23:07:51.993Z,-3.01
2023-01-30T23:10:40.985Z,-3.02
2023-01-30T23:13:29.849Z,-3.06
2023-01-30T23:16:20.393Z,-3.09
2023-01-30T23:19:09.593Z,-3.12
2023-01-30T23:21:58.344Z,-3.13
2023-01-30T23:24:48.785Z,-3.14
2023-01-30T23:27:37.919Z,-3.15
2023-01-30T23:30:26.651Z,-3.15
2023-01-30T23:33:15.509Z,-3.15
2023-01-30T23:36:05.583Z,-3.16
2023-01-30T23:38:55.084Z,-3.18
2023-01-30T23:41:44.296Z,-3.18
2023-01-30T23:44:33.298Z,-3.15
2023-01-30T23:47:21.991Z,-3.18
2023-01-30T23:50:11.447Z,-3.20
2023-01-30T23:53:00.255Z,-3.17
2023-01-30T23:55:52.748Z,-3.12
2023-01-30T23:58:41.823Z,-3.12
